Wednesday, October 01, 2014
04:04 UTC
  |  Log In   |  Register Free
Airport Search:

Pearson Field Airport
(KVUO)

Pearson Field Airport Diagram
No Airport Diagram Available

FAA data valid effective September 18, 2014 - November 13, 2014 (unless otherwise noted).

 
 
 
 
 
 
 
 
 
 
 
 
 
 

Current Aviation Weather for Pearson Field Airport (KVUO)

The most recent METAR observation for KVUO was updated at: 0317
METAR Summary (Translated METAR)
KVUO
010253Z AUTO 36003KT 10SM CLR 16/10 A3015 RMK AO2 SLP211 60000 T01610100 53010
KPDX
010253Z 33004KT 10SM FEW028 FEW045 SCT085 16/11 A3016 RMK AO2 SLP212 T01610106 53010
(3.1 nm SE from KVUO)
KTTD
010253Z 00000KT 10SM FEW090 13/12 A3014 RMK AO2 SLP207 60007 T01330122 53007
(11.5 nm SE from KVUO)
TAF Summary (Translated TAF)
KPDX
(3.1 nm SE from KVUO)
010253Z 0103/0124 30004KT P6SM VCSH FEW030 FEW050 SCT080 FM011000 VRB03KT P6SM OVC015 FM011800 31004KT P6SM FEW030 FM012100 32006KT P6SM SKC
KTTD
(11.5 nm SE from KVUO)
301738Z 3018/0118 24004KT P6SM VCSH SCT015 BKN040 FM010100 26005KT P6SM OVC100 FM011200 VRB03KT P6SM OVC015 FM011400 VRB03KT 5SM BR OVC007
  Airport Weather Conditions for KVUO

 Current Weather at VUO
61° F
Fair
North winds at 3.5 mph
VUO NOAA Radar

Pressure: 30.15 in
Humidity: 67%
Wind: North at 3.5 MPH (3 KT)
Dew Point: 50.0°F
Visibility: 10.00 mi


Airport Weather Forecast for KVUO

Translated METAR and TAF for KVUO
Translated METAR for KVUO (0358 UTC 01 October 2014)
found at http://aviationweather.gov/adds/metars/
 
METAR text: KVUO 010353Z AUTO 31005KT 10SM SCT080 15/10 A3016 RMK AO2 SLP214 T01500100
Conditions at: KVUO (VANCOUVER , WA, US) observed 0353 UTC 01 October 2014
Temperature: 15.0°C (59°F)
Dewpoint: 10.0°C (50°F) [RH = 72%]
Pressure (altimeter): 30.16 inches Hg (1021.4 mb)
[Sea-level pressure: 1021.4 mb]
Winds: from the NW (310 degrees) at 6 MPH (5 knots; 2.6 m/s)
Visibility: 10 or more miles (16+ km)
Ceiling: at least 12,000 feet AGL
Clouds: scattered clouds at 8000 feet AGL
Weather: automated observation with no human augmentation;
there may or may not be significant weather present at this time
Translated TAF for KVUO

There is no translated TAF available for this airport

Find All Airport Services Find A Hotel Find A Rental Car Find A Golf Course Find A Restaurant $100 Hamburger



FBO's on the Field
FBO Company Facility Photos Services Transportation Aviation Fuel Prices: Prices include tax
Catering Weather Repair Courtesy Rental Type 100LL JetA JetA+ MOGAS 8087
 
Aero Maintenance Inc

This FBO has not yet been rated
FS:AirBP
Last Updated: Sep-25
Login to update fuel prices
SS:
Contact Aero Maintenance IncMore FBO Information
 
Add another FBO Facility Photos Catering Weather Repair Courtesy Rental Type 100LL JetA JetA+ MOGAS 8087
Services Transportation Aviation Fuel Prices: Prices include tax


model-print
model-print
model-print
model-print